Weather observations for the past three days for
Anson County Airport
Metric (Imperial)
Date Time (edt) Wind (kph) Vis. (km) Weather Sky Cond. Temperature (ºC) Relative Humidity Wind Chill (°C) Heat Index (°C) Pressure Precipitation (cm)
Air Dwpt 6 hour altimeter (cm) sea level (mb) 1 hr 3 hr 6 hr
Max. Min.
05 11:15 Calm 16.09 Fair CLR 32.2 23.6 60% 38 76 0.0
05 10:55 SW 6 16.09 Fair CLR 31.4 23.8 64% 37 76 0.0
05 10:35 Calm 16.09 Fair CLR 30.9 23.8 66% 36 76 0.0
05 10:15 W 6 16.09 Fair CLR 30.7 24 67% 36 76 0.0
05 09:55 SW 7 16.09 Fair CLR 29.6 24.1 72% 35 76 0.0
05 09:35 Calm 16.09 Fair CLR 28.8 24.4 77% 34 76.02 0.0
05 09:15 Calm 16.09 Fair CLR 27.9 24.1 80% 32 76.02 0.0
05 08:55 SW 6 16.09 Fair CLR 27.3 24.1 83% 31 76.02 0.0
05 08:35 SW 6 16.09 Fair CLR 26.6 24.1 86% 29 76.02 0.0
05 08:15 Calm 16.09 Fair CLR 26.1 24 88% 28 76.02 0.0
05 07:55 SW 6 16.09 Fair CLR 25.7 24 27 23.6 90% 27 76.02 0.0
05 07:35 Calm 16.09 Fair CLR 25.3 23.9 92% 26 76 0.0
05 07:15 SW 6 16.09 Fair CLR 25.1 23.8 93% 26 75.97 0.0
05 06:55 SW 6 16.09 Fair CLR 25 23.7 93% 26 75.95 0.0
05 06:35 SW 7 16.09 Fair CLR 25.1 23.7 92% 26 75.95 0.0
05 06:15 Calm 16.09 Fair CLR 24.7 23.6 94% 25 75.95 0.0
05 05:55 Calm 16.09 Fair CLR 24.5 23.6 95% 24 75.95 0.0
05 05:35 Calm 16.09 Fair CLR 24.3 23.4 95% 24 75.95 0.0
05 05:15 S 6 16.09 Fair CLR 23.8 23.2 96% 75.97 0.0
05 04:55 Calm 16.09 Fair CLR 24.5 23.5 94% 24 75.97 0.0
05 04:35 Calm 16.09 Fair CLR 24.6 23.5 94% 25 75.97 0.0
05 04:15 Calm 16.09 Fair CLR 24.2 23.3 95% 24 75.97 0.0
05 03:55 Calm 16.09 Fair CLR 24.7 23.5 93% 25 76 0.0
05 03:35 Calm 16.09 Fair CLR 24.6 23.5 94% 25 76 0.0
05 03:15 E 6 16.09 Fair CLR 25.1 23.5 91% 26 76 0.0
05 02:55 Calm 16.09 Fair CLR 26.1 23.3 85% 28 76 0.0
05 02:35 Calm 16.09 Fair CLR 26.5 23.3 83% 29 76 0.0
05 02:15 Calm 16.09 Fair CLR 26.8 23.3 81% 29 76.02 0.0
05 01:55 Calm 16.09 Fair CLR 27 23.3 29.4 27 80% 30 76.02 0.0
05 01:15 Calm 16.09 Fair CLR 27.5 23 77% 30 76.07 0.0
05 00:55 Calm 16.09 Fair CLR 27.8 22.7 74% 31 76.07 0.0
05 00:35 S 6 16.09 Fair CLR 28 22.6 73% 31 76.07 0.0
05 00:15 S 6 16.09 Fair CLR 28.5 22.1 68% 31 76.1 0.0
04 23:55 S 6 16.09 Fair CLR 28.8 22.1 67% 32 76.1 0.0
04 23:35 S 6 16.09 Fair CLR 29 22 66% 32 76.07 0.0
04 23:15 S 6 16.09 Fair CLR 29.1 21.9 65% 32 76.07 0.0
04 22:55 S 6 16.09 Fair CLR 29.3 22.1 65% 32 76.07 0.0
04 22:35 Calm 16.09 Fair CLR 28.4 23 73% 32 76.1 0.0
04 22:15 S 7 16.09 Fair CLR 28.2 23.9 78% 32 76.1 0.0
04 21:55 Calm 16.09 Fair CLR 27 25 89% 31 76.07 0.0
04 21:35 Calm 16.09 Fair CLR 27.2 25.3 89% 31 76.07 0.0
04 21:15 Calm 16.09 Fair CLR 27.6 25.5 88% 32 76.05 0.0
04 20:55 Calm 16.09 Fair CLR 28.3 25.6 85% 34 76.07 0.0
04 20:35 Calm 16.09 Fair CLR 28.1 26 88% 34 76.07 0.0
04 20:15 Calm 16.09 Fair CLR 28.4 25.7 85% 34 76.07 0.0
04 19:55 Calm 16.09 Fair CLR 29.2 25.5 35.7 29.2 81% 35 76.02 0.0
04 19:35 Calm 16.09 Fair CLR 31 25.1 71% 38 76.02 0.0
04 19:15 Calm 16.09 Fair CLR 33 23.7 58% 39 76.02 0.0
04 18:55 Calm 16.09 Fair CLR 34 22.4 51% 39 76 0.0
04 18:35 S 6 16.09 Fair CLR 34.5 22 48% 39 76 0.0
04 18:15 S 7 16.09 Fair CLR 35 21 44% 38 76 0.0
04 17:55 S 6 16.09 Fair CLR 35.2 21.1 44% 39 76.02 0.0
04 17:35 S 7 16.09 Fair CLR 35.4 21.5 44% 39 76.02 0.0
04 17:15 S 9 16.09 Fair CLR 35.5 21.3 44% 39 76.02 0.0
04 16:55 SE 7 16.09 Fair CLR 35.5 21.4 44% 39 76.02 0.0
04 16:35 S 9 16.09 Fair CLR 35.6 22 45% 40 76.07 0.0
04 16:15 S 6 16.09 Fair CLR 35.3 22.3 47% 40 76.07 0.0
04 15:55 S 9 16.09 Fair CLR 35.5 22.3 46% 40 76.1 0.0
04 15:35 SE 9 16.09 Partly Cloudy SCT060 35.5 22.8 48% 41 76.12 0.0
04 15:15 SW 9 16.09 Fair CLR 35.5 22.8 48% 41 76.17 0.0
04 14:55 SE 6 16.09 Fair CLR 35.1 22.7 49% 40 76.17 0.0
04 14:35 S 7 16.09 Fair CLR 35 22.5 48% 40 76.2 0.0
04 14:15 SE 6 11.27 Fair CLR 34.6 22.6 50% 40 76.2 0.0
04 13:55 S 6 11.27 Fair CLR 34.3 22.7 34.6 24.1 51% 39 76.23 0.0
04 13:35 Calm 16.09 Fair CLR 33.9 22.7 52% 39 76.23 0.0
04 13:15 NW 6 8.05 Fair CLR 33.5 23.1 54% 39 76.25 0.0
04 12:55 SW 9 8.05 Fair CLR 33.5 22.9 54% 39 76.28 0.0
04 12:35 S 9 8.05 Fair CLR 32.7 23.3 58% 38 76.28 0.0
04 12:15 SW 7 8.05 Fair CLR 32.7 23.6 59% 38 76.3 0.0
04 11:35 SW 7 11.27 Fair CLR 31.8 24 63% 38 76.33 0.0
04 11:15 S 7 16.09 Fair CLR 31.2 23.8 65% 37 76.33 0.0
04 10:55 W 7 16.09 Fair CLR 31.4 23.6 63% 37 76.33 0.0
04 10:35 Calm 16.09 Fair CLR 30.2 23.7 68% 35 76.33 0.0
04 10:15 S 9 16.09 Fair CLR 29.6 23.7 71% 34 76.33 0.0
04 09:55 SW 13 16.09 Fair CLR 29 23.8 74% 33 76.33 0.0
04 09:35 SW 7 16.09 Fair CLR 28.2 24.4 80% 33 76.33 0.0
04 09:15 SW 9 16.09 Fair CLR 27.6 24.5 83% 32 76.33 0.0
04 08:55 SW 9 16.09 Fair CLR 26.8 24.7 88% 30 76.33 0.0
04 08:35 SW 6 16.09 Fair CLR 26.1 24.4 90% 28 76.33 0.0
04 08:15 Calm 11.27 Fair CLR 25.1 24 94% 26 76.33 0.0
04 07:55 Calm 16.09 Fair CLR 24 23.5 26 22 97% 23 76.33 0.0
04 07:35 Calm 16.09 Fair CLR 22.7 22.1 96% 76.33 0.0
04 07:15 Calm 16.09 Fair CLR 22 21.5 97% 76.3 0.0
04 06:55 Calm 16.09 Fair CLR 22.5 22 97% 76.3 0.0
04 06:35 Calm 16.09 Fair CLR 23 22.3 96% 76.28 0.0
04 06:15 Calm 16.09 Fair CLR 22.5 21.8 96% 76.28 0.0
04 05:55 Calm 16.09 Fair CLR 22.5 21.8 96% 76.25 0.0
04 05:35 Calm 16.09 Fair CLR 22.9 22.3 96% 76.25 0.0
04 05:15 Calm 16.09 Fair CLR 23.1 22.5 96% 76.25 0.0
04 04:55 Calm 16.09 Fair CLR 23.5 22.7 95% 76.25 0.0
04 04:35 Calm 16.09 Fair CLR 23.7 22.7 94% 76.25 0.0
04 04:15 Calm 16.09 Fair CLR 23.7 22.8 95% 76.23 0.0
04 03:55 Calm 16.09 Fair CLR 23.5 22.8 96% 76.23 0.0
04 03:35 Calm 16.09 Fair CLR 23.3 22.7 96% 76.23 0.0
04 03:15 Calm 16.09 Fair CLR 24 23 94% 23 76.25 0.0
04 02:55 Calm 16.09 Fair CLR 24.6 23 91% 25 76.25 0.0
04 02:35 Calm 16.09 Fair CLR 24.9 23 89% 25 76.28 0.0
04 02:15 Calm 16.09 Fair CLR 26 23 84% 28 76.28 0.0
04 01:55 Calm 16.09 Fair CLR 25.8 22.8 29.8 25.8 84% 27 76.3 0.0
04 01:35 Calm 16.09 Fair CLR 26.5 22.8 80% 29 76.3 0.0
04 01:15 S 6 16.09 Fair CLR 26.6 22.7 79% 29 76.3 0.0
04 00:55 S 6 16.09 Fair CLR 26.9 22.5 77% 29 76.3 0.0
04 00:35 S 6 16.09 Fair CLR 27 22.3 76% 29 76.3 0.0
04 00:15 S 6 16.09 Fair CLR 27.2 22.2 74% 30 76.3 0.0
03 23:55 S 6 16.09 Fair CLR 27.6 22.3 73% 30 76.3 0.0
03 23:35 S 6 16.09 Fair CLR 28 22.2 71% 31 76.33 0.0
03 23:15 S 7 16.09 Fair CLR 28 22.5 72% 31 76.33 0.0
03 22:55 S 9 16.09 Fair CLR 28.2 22.7 72% 31 76.33 0.0
03 22:35 S 7 16.09 Fair CLR 28.6 22.8 71% 32 76.33 0.0
03 22:15 S 7 16.09 Fair CLR 28.8 23 71% 32 76.33 0.0
03 21:55 S 9 16.09 Fair CLR 29.1 23.1 70% 33 76.3 0.0
03 21:35 S 11 16.09 Fair CLR 29.1 23.5 72% 33 76.28 0.0
03 21:15 SE 9 16.09 Fair CLR 29 23.9 74% 33 76.25 0.0
03 20:55 S 7 16.09 Fair CLR 29.2 24 74% 34 76.23 0.0
03 20:35 S 7 16.09 Fair CLR 29.2 24.5 76% 34 76.23 0.0
03 20:15 SE 6 16.09 Fair CLR 29.6 25.5 79% 36 76.2 0.0
03 19:55 Calm 16.09 Fair CLR 29.9 26.2 37.1 29.9 81% 38 76.17 0.0 0.25
03 19:35 Calm 16.09 Fair CLR 31.2 25.7 73% 39 76.17 0.0
03 19:15 Calm 16.09 Fair CLR 32.5 25 65% 40 76.15 0.0
03 18:55 SE 6 16.09 Fair CLR 34 23.8 55% 40 76.15 0.0
03 18:35 SE 6 16.09 Fair CLR 34.6 22.9 51% 40 76.17 0.0
03 18:15 SE 7 16.09 Fair CLR 35 22.7 49% 40 76.17 0.0
03 17:55 SE 9 16.09 Fair CLR 35.2 22.9 49% 41 76.17 0.0
03 17:35 SE 6 16.09 Fair CLR 34.8 22.7 49% 40 76.17 0.0
03 17:15 SE 13 16.09 Fair CLR 36.3 21.5 42% 41 76.17 0.0
03 16:55 S 7 16.09 Fair CLR 36.2 21.4 42% 40 76.17 0.0 0.25
03 16:35 SE 6 11.27 Fair CLR 36.4 20.9 40% 40 76.2 0.0
03 16:15 SE 6 16.09 Fair CLR 36.7 21.3 41% 41 76.2 0.0
03 15:55 Calm 16.09 Fair CLR 36.4 21 41% 40 76.23 0.0 0.25
03 15:35 SE 9 16.09 Fair CLR 36.4 21 41% 40 76.23 0.0 0.25
03 14:55 SE 6 16.09 Fair CLR 36.2 21.1 41% 40 76.28 0.0
03 14:35 S 7 16.09 Fair CLR 35.8 21 42% 39 76.28 0.0
03 14:15 S 6 16.09 Fair CLR 36 20.8 41% 40 76.3 0.0
03 13:55 N 7 16.09 Fair CLR 35.3 21.8 36.1 23.7 45% 40 76.3 0.0
03 13:35 Calm 16.09 Fair CLR 35.8 21.5 43% 40 76.33 0.0
03 13:15 Calm 16.09 Fair CLR 35.5 22.8 48% 41 76.33 0.0
03 12:55 NE 7 11.27 Fair CLR 34.3 23.7 54% 41 76.35 0.0
03 12:35 E 7 11.27 Fair CLR 34.8 24 53% 42 76.38 0.0
03 12:15 Calm 16.09 Fair CLR 33.8 23.4 55% 40 76.38 0.0
03 11:55 Calm 16.09 Fair CLR 33.5 24 58% 40 76.4 0.0
03 11:35 Calm 16.09 Fair CLR 32.5 23.9 61% 38 76.4 0.0
03 11:15 N 6 16.09 Fair CLR 31.7 24.2 64% 38 76.4 0.0
03 10:55 Calm 16.09 Fair CLR 31.3 24.5 67% 38 76.38 0.0
03 10:35 NW 6 16.09 Fair CLR 30.5 24.2 69% 36 76.38 0.0
03 10:15 NW 6 16.09 Fair CLR 30 23.5 68% 35 76.38 0.0
03 09:55 NW 6 16.09 Fair CLR 29.6 23.6 70% 34 76.38 0.0
03 09:35 Calm 16.09 Fair CLR 28.8 23.5 73% 33 76.38 0.0
03 09:15 Calm 16.09 Fair CLR 27.6 23.7 79% 31 76.38 0.0
03 08:55 Calm 16.09 Fair CLR 26.8 24.1 85% 30 76.4 0.0
03 08:35 Calm 16.09 Fair CLR 25.7 24.2 91% 27 76.4 0.0
03 08:15 Calm 16.09 Fair CLR 24.6 23.7 95% 25 76.4 0.0
03 07:55 Calm 11.27 Fair CLR 23.6 23 25 22.6 96% 76.4 0.0
03 07:35 Calm 11.27 Fair CLR 22.7 22.1 96% 76.38 0.0
03 07:15 Calm 11.27 Fair CLR 23 22.5 97% 76.38 0.0
03 06:55 Calm 16.09 Fair CLR 23 22.5 97% 76.35 0.0
03 06:35 Calm 16.09 Fair CLR 23.2 22.6 96% 76.33 0.0
03 06:15 Calm 16.09 Fair CLR 22.9 22.2 96% 76.33 0.0
03 05:55 Calm 16.09 Fair CLR 23.3 22.7 96% 76.33 0.0
03 05:35 Calm 16.09 Fair CLR 23.7 23.1 96% 76.33 0.0
03 05:15 Calm 11.27 Fair CLR 23.3 22.7 96% 76.33 0.0
03 04:55 Calm 16.09 Fair CLR 23.7 23.1 96% 76.33 0.0
03 04:35 Calm 16.09 Fair CLR 23.9 23.3 96% 23 76.3 0.0
03 04:15 Calm 16.09 Fair CLR 24.4 23.6 95% 24 76.3 0.0
03 03:55 Calm 16.09 Fair CLR 23.8 23.2 96% 76.3 0.0
03 03:35 Calm 16.09 Fair CLR 23.9 23.3 96% 23 76.28 0.0
03 03:15 Calm 16.09 Fair CLR 24.2 23.5 96% 23 76.28 0.0
03 02:55 Calm 16.09 Fair CLR 24.5 23.9 96% 24 76.28 0.0
03 02:35 Calm 16.09 Fair CLR 24.9 24 95% 25 76.28 0.0
03 02:15 Calm 16.09 Fair CLR 24.8 24.1 96% 25 76.28 0.0
03 01:55 Calm 16.09 Fair CLR 24.8 24.2 30.5 24.7 96% 25 76.28 0.0
03 01:35 Calm 16.09 Fair CLR 25 24.2 95% 25 76.28 0.0
03 01:15 Calm 16.09 Fair CLR 24.7 24.1 96% 25 76.28 0.0
03 00:55 Calm 16.09 Fair CLR 25.5 24.4 94% 27 76.28 0.0
03 00:35 SE 6 16.09 Fair CLR 25.1 24.1 94% 26 76.28 0.0
03 00:15 Calm 16.09 Fair CLR 25.5 24.5 94% 27 76.25 0.0
02 23:55 Calm 16.09 Fair CLR 25.6 24.6 94% 27 76.25 0.0
02 23:35 W 6 16.09 Fair CLR 26.4 25.2 93% 29 76.28 0.0
02 23:15 Calm 16.09 Fair CLR 26.3 25.3 94% 29 76.3 0.0
02 22:55 Calm 16.09 Fair CLR 26.9 25.3 91% 31 76.33 0.0
02 22:35 Calm 16.09 Fair CLR 26.5 25.4 94% 30 76.33 0.0
02 22:15 Calm 16.09 Fair CLR 26.8 25.5 93% 30 76.35 0.0
02 21:55 Calm 16.09 Fair CLR 27.2 25.7 92% 31 76.33 0.0
02 21:35 Calm 16.09 Fair CLR 27.2 25.9 93% 32 76.33 0.0
02 21:15 Calm 16.09 Fair CLR 28 26.1 89% 34 76.3 0.0
02 20:55 Calm 16.09 Fair CLR 28.5 26.1 87% 35 76.28 0.0
02 20:35 Calm 16.09 Fair CLR 29.1 26.1 84% 36 76.28 0.0
02 20:15 Calm 16.09 Fair CLR 29.7 26 81% 37 76.25 0.0
02 19:55 Calm 16.09 Fair CLR 30.5 25.7 36.8 30.5 76% 38 76.25 0.0
02 19:35 Calm 16.09 Fair CLR 31.4 25.5 71% 39 76.25 0.0
02 19:15 Calm 16.09 Fair CLR 33.5 23.5 56% 39 76.25 0.0
02 18:55 Calm 16.09 Fair CLR 35 21.2 45% 39 76.25 0.0
02 18:35 Calm 16.09 Fair CLR 35.6 19.5 39% 38 76.25 0.0
02 18:15 Calm 16.09 Fair CLR 35.8 19.3 38% 38 76.25 0.0
02 17:55 W 6 16.09 Fair CLR 35.9 19.5 38% 38 76.25 0.0
02 17:35 Calm 16.09 Fair CLR 35.9 19.4 38% 38 76.25 0.0
02 17:15 NW 6 16.09 Fair CLR 36.1 18.8 36% 38 76.28 0.0
02 16:55 N 7 16.09 Fair CLR 36 19.2 37% 38 76.28 0.0
02 16:35 N 7 16.09 Fair CLR 36.3 19.8 38% 39 76.28 0.0
02 16:15 W 6 16.09 Fair CLR 36.7 19.2 36% 39 76.28 0.0
02 15:55 W 6 16.09 Fair CLR 36.4 19.4 37% 39 76.3 0.0
02 15:35 NW 7 11.27 Fair CLR 36.5 18.8 35% 39 76.3 0.0
02 15:15 NW 6 11.27 Fair CLR 36.1 20.2 39% 39 76.33 0.0
02 14:55 Calm 11.27 Fair CLR 36.3 19.5 37% 39 76.33 0.0
02 14:35 W 6 11.27 Fair CLR 36 19.5 38% 38 76.35 0.0
02 14:15 W 7 11.27 Fair CLR 36.1 20 39% 39 76.35 0.0
02 13:55 W 6 11.27 Fair CLR 35.6 20.4 35.7 23.4 41% 39 76.38 0.0
02 13:35 NW 7 11.27 Fair CLR 35.7 21 42% 39 76.38 0.0
02 13:15 Calm 11.27 Fair CLR 35 22 47% 39 76.4 0.0
02 12:55 N 9 16.09 Fair CLR 34.8 22.1 48% 39 76.4 0.0
02 12:35 Calm 16.09 Fair CLR 34.1 22.3 50% 39 76.4 0.0
02 12:15 NW 6 11.27 Fair CLR 34.1 22 49% 38 76.43 0.0
02 11:55 NE 6 11.27 Fair CLR 33.5 22.7 53% 38 76.43 0.0
02 11:35 N 6 11.27 Fair CLR 32.7 23.1 57% 38 76.43 0.0
Date Time (edt) Wind (kph) Vis. (km) Weather Sky Cond. Air Dwpt Max. Min. Relative Humidity Wind Chill (°C) Heat Index (°C) altimeter (cm) sea level (mb) 1 hr 3 hr 6 hr
6 hour
Temperature (ºC) Pressure Precipitation (cm)